sensor_id;sensor_type;location;lat;lon;timestamp;P1;durP1;ratioP1;P2;durP2;ratioP2
24425;SDS011;12611;44.446;26.000;2022-08-19T00:02:02;14.35;;;6.82;;
24425;SDS011;12611;44.446;26.000;2022-08-19T00:04:32;11.50;;;6.57;;
24425;SDS011;12611;44.446;26.000;2022-08-19T00:07:03;10.15;;;6.32;;
24425;SDS011;12611;44.446;26.000;2022-08-19T00:09:34;16.55;;;6.93;;
24425;SDS011;12611;44.446;26.000;2022-08-19T00:12:04;13.10;;;6.90;;
24425;SDS011;12611;44.446;26.000;2022-08-19T00:14:33;12.68;;;7.22;;
24425;SDS011;12611;44.446;26.000;2022-08-19T00:17:02;13.63;;;6.97;;
24425;SDS011;12611;44.446;26.000;2022-08-19T00:19:32;12.57;;;6.75;;
24425;SDS011;12611;44.446;26.000;2022-08-19T00:22:02;15.75;;;6.72;;
24425;SDS011;12611;44.446;26.000;2022-08-19T00:24:44;11.70;;;7.30;;
24425;SDS011;12611;44.446;26.000;2022-08-19T00:27:17;11.27;;;7.47;;
24425;SDS011;12611;44.446;26.000;2022-08-19T00:29:52;14.25;;;7.40;;
24425;SDS011;12611;44.446;26.000;2022-08-19T00:32:21;13.73;;;8.35;;
24425;SDS011;12611;44.446;26.000;2022-08-19T00:34:52;13.45;;;7.43;;
24425;SDS011;12611;44.446;26.000;2022-08-19T00:37:24;12.27;;;8.15;;
24425;SDS011;12611;44.446;26.000;2022-08-19T00:39:58;14.07;;;8.07;;
24425;SDS011;12611;44.446;26.000;2022-08-19T00:42:28;15.93;;;7.93;;
24425;SDS011;12611;44.446;26.000;2022-08-19T00:44:57;12.93;;;7.10;;
24425;SDS011;12611;44.446;26.000;2022-08-19T00:47:27;13.00;;;8.15;;
24425;SDS011;12611;44.446;26.000;2022-08-19T00:49:56;13.85;;;7.05;;
24425;SDS011;12611;44.446;26.000;2022-08-19T00:52:26;13.13;;;7.63;;
24425;SDS011;12611;44.446;26.000;2022-08-19T00:55:03;11.20;;;6.68;;
24425;SDS011;12611;44.446;26.000;2022-08-19T00:57:40;12.70;;;6.97;;
24425;SDS011;12611;44.446;26.000;2022-08-19T01:00:17;13.48;;;7.50;;
24425;SDS011;12611;44.446;26.000;2022-08-19T01:02:51;19.13;;;8.63;;
24425;SDS011;12611;44.446;26.000;2022-08-19T01:05:22;10.68;;;7.32;;
24425;SDS011;12611;44.446;26.000;2022-08-19T01:07:56;15.65;;;8.30;;
24425;SDS011;12611;44.446;26.000;2022-08-19T01:10:28;15.45;;;7.57;;
24425;SDS011;12611;44.446;26.000;2022-08-19T01:13:05;13.45;;;7.72;;
24425;SDS011;12611;44.446;26.000;2022-08-19T01:15:42;15.27;;;8.07;;
24425;SDS011;12611;44.446;26.000;2022-08-19T01:18:18;17.95;;;9.10;;
24425;SDS011;12611;44.446;26.000;2022-08-19T01:20:48;11.80;;;7.38;;
24425;SDS011;12611;44.446;26.000;2022-08-19T01:23:21;14.70;;;7.90;;
24425;SDS011;12611;44.446;26.000;2022-08-19T01:26:09;13.88;;;8.13;;
24425;SDS011;12611;44.446;26.000;2022-08-19T01:28:40;13.82;;;8.13;;
24425;SDS011;12611;44.446;26.000;2022-08-19T01:31:15;16.30;;;7.97;;
24425;SDS011;12611;44.446;26.000;2022-08-19T01:33:54;17.13;;;7.93;;
24425;SDS011;12611;44.446;26.000;2022-08-19T01:36:26;14.02;;;7.72;;
24425;SDS011;12611;44.446;26.000;2022-08-19T01:38:58;13.70;;;8.43;;
24425;SDS011;12611;44.446;26.000;2022-08-19T01:41:27;13.82;;;7.88;;
24425;SDS011;12611;44.446;26.000;2022-08-19T01:43:57;16.88;;;8.73;;
24425;SDS011;12611;44.446;26.000;2022-08-19T01:46:45;12.30;;;8.30;;
24425;SDS011;12611;44.446;26.000;2022-08-19T01:49:15;14.27;;;8.98;;
24425;SDS011;12611;44.446;26.000;2022-08-19T01:51:44;12.15;;;8.25;;
24425;SDS011;12611;44.446;26.000;2022-08-19T01:54:15;17.15;;;8.85;;
24425;SDS011;12611;44.446;26.000;2022-08-19T01:56:53;17.00;;;9.07;;
24425;SDS011;12611;44.446;26.000;2022-08-19T01:59:27;15.00;;;8.68;;
24425;SDS011;12611;44.446;26.000;2022-08-19T02:01:57;14.75;;;9.13;;
24425;SDS011;12611;44.446;26.000;2022-08-19T02:04:25;13.48;;;8.60;;
24425;SDS011;12611;44.446;26.000;2022-08-19T02:06:54;15.80;;;8.55;;
24425;SDS011;12611;44.446;26.000;2022-08-19T02:09:24;13.27;;;7.97;;
24425;SDS011;12611;44.446;26.000;2022-08-19T02:11:52;17.20;;;8.55;;
24425;SDS011;12611;44.446;26.000;2022-08-19T02:14:20;13.88;;;8.45;;
24425;SDS011;12611;44.446;26.000;2022-08-19T02:16:49;14.63;;;8.43;;
24425;SDS011;12611;44.446;26.000;2022-08-19T02:19:18;16.27;;;9.50;;
24425;SDS011;12611;44.446;26.000;2022-08-19T02:21:56;17.33;;;8.60;;
24425;SDS011;12611;44.446;26.000;2022-08-19T02:24:27;14.30;;;8.45;;
24425;SDS011;12611;44.446;26.000;2022-08-19T02:26:55;16.08;;;8.27;;
24425;SDS011;12611;44.446;26.000;2022-08-19T02:29:25;15.40;;;9.02;;
24425;SDS011;12611;44.446;26.000;2022-08-19T02:31:53;16.33;;;9.55;;
24425;SDS011;12611;44.446;26.000;2022-08-19T02:34:24;14.80;;;9.23;;
24425;SDS011;12611;44.446;26.000;2022-08-19T02:36:52;13.30;;;8.35;;
24425;SDS011;12611;44.446;26.000;2022-08-19T02:39:24;16.10;;;8.25;;
24425;SDS011;12611;44.446;26.000;2022-08-19T02:41:52;16.20;;;8.68;;
24425;SDS011;12611;44.446;26.000;2022-08-19T02:44:21;15.48;;;8.07;;
24425;SDS011;12611;44.446;26.000;2022-08-19T02:46:57;16.83;;;8.32;;
24425;SDS011;12611;44.446;26.000;2022-08-19T02:49:25;16.83;;;8.88;;
24425;SDS011;12611;44.446;26.000;2022-08-19T02:51:54;13.73;;;8.52;;
24425;SDS011;12611;44.446;26.000;2022-08-19T02:54:22;14.10;;;8.18;;
24425;SDS011;12611;44.446;26.000;2022-08-19T02:56:50;15.95;;;8.57;;
24425;SDS011;12611;44.446;26.000;2022-08-19T02:59:20;17.08;;;9.45;;
24425;SDS011;12611;44.446;26.000;2022-08-19T03:01:51;14.27;;;8.13;;
24425;SDS011;12611;44.446;26.000;2022-08-19T03:04:22;14.77;;;8.40;;
24425;SDS011;12611;44.446;26.000;2022-08-19T03:06:52;16.30;;;8.93;;
24425;SDS011;12611;44.446;26.000;2022-08-19T03:09:27;15.10;;;9.25;;
24425;SDS011;12611;44.446;26.000;2022-08-19T03:11:58;13.75;;;8.23;;
24425;SDS011;12611;44.446;26.000;2022-08-19T03:14:26;15.65;;;8.45;;
24425;SDS011;12611;44.446;26.000;2022-08-19T03:17:01;14.30;;;8.82;;
24425;SDS011;12611;44.446;26.000;2022-08-19T03:19:31;17.23;;;8.50;;
24425;SDS011;12611;44.446;26.000;2022-08-19T03:21:59;13.32;;;8.88;;
24425;SDS011;12611;44.446;26.000;2022-08-19T03:24:28;14.25;;;8.80;;
24425;SDS011;12611;44.446;26.000;2022-08-19T03:27:02;16.75;;;8.38;;
24425;SDS011;12611;44.446;26.000;2022-08-19T03:29:31;15.88;;;9.55;;
24425;SDS011;12611;44.446;26.000;2022-08-19T03:32:12;13.90;;;8.30;;
24425;SDS011;12611;44.446;26.000;2022-08-19T03:34:58;15.45;;;8.98;;
24425;SDS011;12611;44.446;26.000;2022-08-19T03:37:30;12.55;;;8.50;;
24425;SDS011;12611;44.446;26.000;2022-08-19T03:39:59;14.30;;;8.38;;
24425;SDS011;12611;44.446;26.000;2022-08-19T03:42:33;14.15;;;9.10;;
24425;SDS011;12611;44.446;26.000;2022-08-19T03:45:15;16.60;;;8.23;;
24425;SDS011;12611;44.446;26.000;2022-08-19T03:47:45;16.80;;;8.63;;
24425;SDS011;12611;44.446;26.000;2022-08-19T03:50:14;15.73;;;8.77;;
24425;SDS011;12611;44.446;26.000;2022-08-19T03:52:47;14.38;;;9.32;;
24425;SDS011;12611;44.446;26.000;2022-08-19T03:55:17;15.32;;;9.52;;
24425;SDS011;12611;44.446;26.000;2022-08-19T03:57:48;14.43;;;9.00;;
24425;SDS011;12611;44.446;26.000;2022-08-19T04:00:24;14.88;;;8.75;;
24425;SDS011;12611;44.446;26.000;2022-08-19T04:02:56;12.30;;;8.15;;
24425;SDS011;12611;44.446;26.000;2022-08-19T04:05:31;12.98;;;8.48;;
24425;SDS011;12611;44.446;26.000;2022-08-19T04:07:59;13.73;;;8.68;;
24425;SDS011;12611;44.446;26.000;2022-08-19T04:10:29;14.60;;;9.27;;
24425;SDS011;12611;44.446;26.000;2022-08-19T04:13:04;15.82;;;9.57;;
24425;SDS011;12611;44.446;26.000;2022-08-19T04:15:33;16.77;;;8.80;;
24425;SDS011;12611;44.446;26.000;2022-08-19T04:18:07;13.93;;;8.65;;
24425;SDS011;12611;44.446;26.000;2022-08-19T04:20:41;14.68;;;8.38;;
24425;SDS011;12611;44.446;26.000;2022-08-19T04:23:11;16.20;;;8.52;;
24425;SDS011;12611;44.446;26.000;2022-08-19T04:25:43;19.75;;;8.98;;
24425;SDS011;12611;44.446;26.000;2022-08-19T04:28:15;15.85;;;9.00;;
24425;SDS011;12611;44.446;26.000;2022-08-19T04:30:44;14.05;;;8.88;;
24425;SDS011;12611;44.446;26.000;2022-08-19T04:33:19;14.95;;;8.80;;
24425;SDS011;12611;44.446;26.000;2022-08-19T04:35:54;13.93;;;8.63;;
24425;SDS011;12611;44.446;26.000;2022-08-19T04:38:31;12.73;;;8.00;;
24425;SDS011;12611;44.446;26.000;2022-08-19T04:41:02;14.18;;;8.55;;
24425;SDS011;12611;44.446;26.000;2022-08-19T04:43:50;14.63;;;8.27;;
24425;SDS011;12611;44.446;26.000;2022-08-19T04:46:18;13.82;;;8.88;;
24425;SDS011;12611;44.446;26.000;2022-08-19T04:49:06;14.80;;;8.70;;
24425;SDS011;12611;44.446;26.000;2022-08-19T04:51:39;18.00;;;9.70;;
24425;SDS011;12611;44.446;26.000;2022-08-19T04:54:12;16.90;;;9.27;;
24425;SDS011;12611;44.446;26.000;2022-08-19T04:57:03;26.48;;;10.18;;
24425;SDS011;12611;44.446;26.000;2022-08-19T04:59:35;26.15;;;10.75;;
24425;SDS011;12611;44.446;26.000;2022-08-19T05:02:07;16.83;;;9.32;;
24425;SDS011;12611;44.446;26.000;2022-08-19T05:04:38;21.70;;;9.18;;
24425;SDS011;12611;44.446;26.000;2022-08-19T05:07:07;16.45;;;8.43;;
24425;SDS011;12611;44.446;26.000;2022-08-19T05:09:37;16.20;;;8.95;;
24425;SDS011;12611;44.446;26.000;2022-08-19T05:12:24;16.98;;;9.10;;
24425;SDS011;12611;44.446;26.000;2022-08-19T05:14:56;17.27;;;9.25;;
24425;SDS011;12611;44.446;26.000;2022-08-19T05:17:26;20.85;;;9.35;;
24425;SDS011;12611;44.446;26.000;2022-08-19T05:20:00;18.45;;;8.63;;
24425;SDS011;12611;44.446;26.000;2022-08-19T05:22:48;11.77;;;7.78;;
24425;SDS011;12611;44.446;26.000;2022-08-19T05:25:19;15.48;;;8.15;;
24425;SDS011;12611;44.446;26.000;2022-08-19T05:27:50;12.63;;;7.30;;
24425;SDS011;12611;44.446;26.000;2022-08-19T05:30:23;12.07;;;7.95;;
24425;SDS011;12611;44.446;26.000;2022-08-19T05:33:12;14.88;;;8.52;;
24425;SDS011;12611;44.446;26.000;2022-08-19T05:35:41;15.85;;;8.05;;
24425;SDS011;12611;44.446;26.000;2022-08-19T05:38:11;16.50;;;8.10;;
24425;SDS011;12611;44.446;26.000;2022-08-19T05:40:40;14.95;;;7.95;;
24425;SDS011;12611;44.446;26.000;2022-08-19T05:43:13;12.15;;;7.40;;
24425;SDS011;12611;44.446;26.000;2022-08-19T05:49:43;12.77;;;6.85;;
24425;SDS011;12611;44.446;26.000;2022-08-19T05:52:12;12.25;;;7.85;;
24425;SDS011;12611;44.446;26.000;2022-08-19T05:58:04;18.20;;;6.90;;
24425;SDS011;12611;44.446;26.000;2022-08-19T06:00:34;15.25;;;7.93;;
24425;SDS011;12611;44.446;26.000;2022-08-19T06:03:02;13.05;;;7.72;;
24425;SDS011;12611;44.446;26.000;2022-08-19T06:05:39;15.20;;;7.38;;
24425;SDS011;12611;44.446;26.000;2022-08-19T06:08:17;11.98;;;6.55;;
24425;SDS011;12611;44.446;26.000;2022-08-19T06:11:13;13.25;;;7.15;;
24425;SDS011;12611;44.446;26.000;2022-08-19T06:13:43;12.13;;;7.05;;
24425;SDS011;12611;44.446;26.000;2022-08-19T06:16:17;15.00;;;6.53;;
24425;SDS011;12611;44.446;26.000;2022-08-19T06:18:49;9.63;;;6.32;;
24425;SDS011;12611;44.446;26.000;2022-08-19T06:21:21;12.88;;;6.75;;
24425;SDS011;12611;44.446;26.000;2022-08-19T06:23:54;9.90;;;6.50;;
24425;SDS011;12611;44.446;26.000;2022-08-19T06:26:23;12.48;;;6.43;;
24425;SDS011;12611;44.446;26.000;2022-08-19T06:28:52;13.35;;;6.57;;
24425;SDS011;12611;44.446;26.000;2022-08-19T06:31:22;12.80;;;6.72;;
24425;SDS011;12611;44.446;26.000;2022-08-19T06:33:52;13.02;;;6.75;;
24425;SDS011;12611;44.446;26.000;2022-08-19T06:36:23;10.30;;;6.05;;
24425;SDS011;12611;44.446;26.000;2022-08-19T06:38:58;8.85;;;5.38;;
24425;SDS011;12611;44.446;26.000;2022-08-19T06:41:27;8.80;;;5.88;;
24425;SDS011;12611;44.446;26.000;2022-08-19T06:43:56;10.98;;;6.53;;
24425;SDS011;12611;44.446;26.000;2022-08-19T06:46:26;14.75;;;6.35;;
24425;SDS011;12611;44.446;26.000;2022-08-19T06:49:00;11.50;;;6.03;;
24425;SDS011;12611;44.446;26.000;2022-08-19T06:51:32;11.48;;;6.35;;
24425;SDS011;12611;44.446;26.000;2022-08-19T06:54:08;10.45;;;5.82;;
24425;SDS011;12611;44.446;26.000;2022-08-19T06:56:45;8.75;;;5.43;;
24425;SDS011;12611;44.446;26.000;2022-08-19T06:59:15;11.60;;;6.28;;
24425;SDS011;12611;44.446;26.000;2022-08-19T07:01:48;10.10;;;5.40;;
24425;SDS011;12611;44.446;26.000;2022-08-19T07:04:19;8.07;;;5.75;;
24425;SDS011;12611;44.446;26.000;2022-08-19T07:06:55;8.18;;;5.85;;
24425;SDS011;12611;44.446;26.000;2022-08-19T07:09:44;8.95;;;5.57;;
24425;SDS011;12611;44.446;26.000;2022-08-19T07:12:26;11.35;;;5.60;;
24425;SDS011;12611;44.446;26.000;2022-08-19T07:14:58;13.35;;;5.63;;
24425;SDS011;12611;44.446;26.000;2022-08-19T07:17:28;11.38;;;5.55;;
24425;SDS011;12611;44.446;26.000;2022-08-19T07:19:59;8.10;;;5.07;;
24425;SDS011;12611;44.446;26.000;2022-08-19T07:22:36;9.15;;;5.07;;
24425;SDS011;12611;44.446;26.000;2022-08-19T07:25:06;8.43;;;5.88;;
24425;SDS011;12611;44.446;26.000;2022-08-19T07:27:37;9.32;;;5.45;;
24425;SDS011;12611;44.446;26.000;2022-08-19T07:30:06;9.90;;;5.70;;
24425;SDS011;12611;44.446;26.000;2022-08-19T07:32:37;7.93;;;5.25;;
24425;SDS011;12611;44.446;26.000;2022-08-19T07:35:06;8.18;;;4.45;;
24425;SDS011;12611;44.446;26.000;2022-08-19T07:37:37;6.85;;;4.68;;
24425;SDS011;12611;44.446;26.000;2022-08-19T07:40:12;8.57;;;4.65;;
24425;SDS011;12611;44.446;26.000;2022-08-19T07:42:41;7.53;;;5.03;;
24425;SDS011;12611;44.446;26.000;2022-08-19T07:45:09;8.77;;;4.68;;
24425;SDS011;12611;44.446;26.000;2022-08-19T07:47:38;7.70;;;5.00;;
24425;SDS011;12611;44.446;26.000;2022-08-19T07:50:24;12.07;;;4.78;;
24425;SDS011;12611;44.446;26.000;2022-08-19T07:52:54;9.52;;;4.93;;
24425;SDS011;12611;44.446;26.000;2022-08-19T07:55:24;6.43;;;4.30;;
24425;SDS011;12611;44.446;26.000;2022-08-19T07:58:11;9.05;;;4.82;;
24425;SDS011;12611;44.446;26.000;2022-08-19T08:00:45;6.53;;;4.50;;
24425;SDS011;12611;44.446;26.000;2022-08-19T08:03:15;9.48;;;4.80;;
24425;SDS011;12611;44.446;26.000;2022-08-19T08:05:45;6.50;;;4.15;;
24425;SDS011;12611;44.446;26.000;2022-08-19T08:08:33;6.30;;;4.43;;
24425;SDS011;12611;44.446;26.000;2022-08-19T08:11:20;10.15;;;4.47;;
24425;SDS011;12611;44.446;26.000;2022-08-19T08:13:56;7.03;;;4.38;;
24425;SDS011;12611;44.446;26.000;2022-08-19T08:16:29;10.90;;;4.28;;
24425;SDS011;12611;44.446;26.000;2022-08-19T08:19:00;9.85;;;4.72;;
24425;SDS011;12611;44.446;26.000;2022-08-19T08:21:40;8.25;;;5.10;;
24425;SDS011;12611;44.446;26.000;2022-08-19T08:24:11;7.38;;;4.85;;
24425;SDS011;12611;44.446;26.000;2022-08-19T08:26:41;9.75;;;4.57;;
24425;SDS011;12611;44.446;26.000;2022-08-19T08:29:12;8.02;;;4.65;;
24425;SDS011;12611;44.446;26.000;2022-08-19T08:31:42;7.22;;;4.35;;
24425;SDS011;12611;44.446;26.000;2022-08-19T08:34:23;10.98;;;5.35;;
24425;SDS011;12611;44.446;26.000;2022-08-19T08:36:52;8.60;;;4.28;;
24425;SDS011;12611;44.446;26.000;2022-08-19T08:39:31;6.45;;;4.35;;
24425;SDS011;12611;44.446;26.000;2022-08-19T08:42:11;6.93;;;4.00;;
24425;SDS011;12611;44.446;26.000;2022-08-19T08:44:49;7.50;;;4.50;;
24425;SDS011;12611;44.446;26.000;2022-08-19T08:47:23;8.05;;;4.40;;
24425;SDS011;12611;44.446;26.000;2022-08-19T08:49:59;9.98;;;4.60;;
24425;SDS011;12611;44.446;26.000;2022-08-19T08:52:34;9.50;;;4.65;;
24425;SDS011;12611;44.446;26.000;2022-08-19T08:55:11;9.20;;;4.18;;
24425;SDS011;12611;44.446;26.000;2022-08-19T08:57:49;6.35;;;4.20;;
24425;SDS011;12611;44.446;26.000;2022-08-19T09:00:22;6.78;;;4.57;;
24425;SDS011;12611;44.446;26.000;2022-08-19T09:02:53;6.60;;;4.13;;
24425;SDS011;12611;44.446;26.000;2022-08-19T09:05:22;5.93;;;3.88;;
24425;SDS011;12611;44.446;26.000;2022-08-19T09:08:05;8.23;;;4.70;;
24425;SDS011;12611;44.446;26.000;2022-08-19T09:10:44;10.70;;;4.63;;
24425;SDS011;12611;44.446;26.000;2022-08-19T09:13:36;7.05;;;4.90;;
24425;SDS011;12611;44.446;26.000;2022-08-19T09:16:15;9.13;;;4.65;;
24425;SDS011;12611;44.446;26.000;2022-08-19T09:18:54;7.45;;;4.28;;
24425;SDS011;12611;44.446;26.000;2022-08-19T09:21:34;9.85;;;4.47;;
24425;SDS011;12611;44.446;26.000;2022-08-19T09:24:06;7.18;;;4.60;;
24425;SDS011;12611;44.446;26.000;2022-08-19T09:26:36;8.80;;;4.10;;
24425;SDS011;12611;44.446;26.000;2022-08-19T09:29:18;7.38;;;5.22;;
24425;SDS011;12611;44.446;26.000;2022-08-19T09:31:48;8.13;;;4.80;;
24425;SDS011;12611;44.446;26.000;2022-08-19T09:34:21;14.10;;;4.78;;
24425;SDS011;12611;44.446;26.000;2022-08-19T09:36:49;8.00;;;4.38;;
24425;SDS011;12611;44.446;26.000;2022-08-19T09:39:20;8.15;;;4.18;;
24425;SDS011;12611;44.446;26.000;2022-08-19T09:41:51;8.05;;;4.85;;
24425;SDS011;12611;44.446;26.000;2022-08-19T09:44:19;6.80;;;4.80;;
24425;SDS011;12611;44.446;26.000;2022-08-19T09:46:54;10.43;;;4.57;;
24425;SDS011;12611;44.446;26.000;2022-08-19T09:49:25;6.22;;;4.82;;
24425;SDS011;12611;44.446;26.000;2022-08-19T09:51:53;8.15;;;4.97;;
24425;SDS011;12611;44.446;26.000;2022-08-19T09:54:22;8.80;;;5.40;;
24425;SDS011;12611;44.446;26.000;2022-08-19T09:56:53;8.30;;;4.43;;
24425;SDS011;12611;44.446;26.000;2022-08-19T09:59:22;9.93;;;4.35;;
24425;SDS011;12611;44.446;26.000;2022-08-19T10:01:53;8.27;;;4.78;;
24425;SDS011;12611;44.446;26.000;2022-08-19T10:04:36;6.45;;;4.15;;
24425;SDS011;12611;44.446;26.000;2022-08-19T10:07:18;7.47;;;4.28;;
24425;SDS011;12611;44.446;26.000;2022-08-19T10:10:01;5.88;;;4.40;;
24425;SDS011;12611;44.446;26.000;2022-08-19T10:12:34;8.27;;;4.75;;
24425;SDS011;12611;44.446;26.000;2022-08-19T10:15:05;11.10;;;5.55;;
24425;SDS011;12611;44.446;26.000;2022-08-19T10:17:35;11.25;;;4.82;;
24425;SDS011;12611;44.446;26.000;2022-08-19T10:20:04;9.15;;;4.78;;
24425;SDS011;12611;44.446;26.000;2022-08-19T10:22:33;13.13;;;5.90;;
24425;SDS011;12611;44.446;26.000;2022-08-19T10:25:04;11.02;;;4.75;;
24425;SDS011;12611;44.446;26.000;2022-08-19T10:27:36;6.75;;;4.40;;
24425;SDS011;12611;44.446;26.000;2022-08-19T10:30:05;8.23;;;4.50;;
24425;SDS011;12611;44.446;26.000;2022-08-19T10:32:38;6.70;;;4.25;;
24425;SDS011;12611;44.446;26.000;2022-08-19T10:35:12;5.80;;;4.60;;
24425;SDS011;12611;44.446;26.000;2022-08-19T10:37:47;12.52;;;4.90;;
24425;SDS011;12611;44.446;26.000;2022-08-19T10:40:25;7.95;;;4.93;;
24425;SDS011;12611;44.446;26.000;2022-08-19T10:42:56;6.50;;;4.55;;
24425;SDS011;12611;44.446;26.000;2022-08-19T10:45:25;9.63;;;5.43;;
24425;SDS011;12611;44.446;26.000;2022-08-19T10:47:55;7.15;;;4.53;;
24425;SDS011;12611;44.446;26.000;2022-08-19T10:50:25;11.73;;;4.47;;
24425;SDS011;12611;44.446;26.000;2022-08-19T10:53:12;9.35;;;4.78;;
24425;SDS011;12611;44.446;26.000;2022-08-19T10:55:45;7.38;;;4.82;;
24425;SDS011;12611;44.446;26.000;2022-08-19T10:58:35;11.38;;;5.80;;
24425;SDS011;12611;44.446;26.000;2022-08-19T11:01:05;7.40;;;5.15;;
24425;SDS011;12611;44.446;26.000;2022-08-19T11:03:36;9.45;;;4.88;;
24425;SDS011;12611;44.446;26.000;2022-08-19T11:06:06;9.40;;;5.00;;
24425;SDS011;12611;44.446;26.000;2022-08-19T11:08:36;8.07;;;4.65;;
24425;SDS011;12611;44.446;26.000;2022-08-19T11:11:06;6.43;;;4.55;;
24425;SDS011;12611;44.446;26.000;2022-08-19T11:13:38;12.50;;;5.88;;
24425;SDS011;12611;44.446;26.000;2022-08-19T11:16:09;7.18;;;5.18;;
24425;SDS011;12611;44.446;26.000;2022-08-19T11:18:41;9.60;;;5.18;;
24425;SDS011;12611;44.446;26.000;2022-08-19T11:21:12;8.45;;;5.03;;
24425;SDS011;12611;44.446;26.000;2022-08-19T11:23:43;6.53;;;4.32;;
24425;SDS011;12611;44.446;26.000;2022-08-19T11:26:13;7.25;;;4.80;;
24425;SDS011;12611;44.446;26.000;2022-08-19T11:28:45;9.57;;;5.53;;
24425;SDS011;12611;44.446;26.000;2022-08-19T11:31:14;7.15;;;4.53;;
24425;SDS011;12611;44.446;26.000;2022-08-19T11:33:44;7.97;;;4.53;;
24425;SDS011;12611;44.446;26.000;2022-08-19T11:36:17;5.80;;;4.13;;
24425;SDS011;12611;44.446;26.000;2022-08-19T11:38:46;6.47;;;4.43;;
24425;SDS011;12611;44.446;26.000;2022-08-19T11:41:16;6.97;;;4.70;;
24425;SDS011;12611;44.446;26.000;2022-08-19T11:43:47;10.43;;;4.25;;
24425;SDS011;12611;44.446;26.000;2022-08-19T11:46:16;7.40;;;4.25;;
24425;SDS011;12611;44.446;26.000;2022-08-19T11:48:45;8.85;;;4.57;;
24425;SDS011;12611;44.446;26.000;2022-08-19T11:51:18;5.68;;;4.40;;
24425;SDS011;12611;44.446;26.000;2022-08-19T11:53:58;6.85;;;4.55;;
24425;SDS011;12611;44.446;26.000;2022-08-19T11:56:29;7.30;;;3.95;;
24425;SDS011;12611;44.446;26.000;2022-08-19T11:58:59;7.15;;;4.60;;
24425;SDS011;12611;44.446;26.000;2022-08-19T12:01:28;7.38;;;3.88;;
24425;SDS011;12611;44.446;26.000;2022-08-19T12:03:58;7.72;;;4.72;;
24425;SDS011;12611;44.446;26.000;2022-08-19T12:06:28;7.20;;;4.07;;
24425;SDS011;12611;44.446;26.000;2022-08-19T12:08:59;7.80;;;4.65;;
24425;SDS011;12611;44.446;26.000;2022-08-19T12:11:31;6.68;;;3.92;;
24425;SDS011;12611;44.446;26.000;2022-08-19T12:14:01;9.02;;;4.68;;
24425;SDS011;12611;44.446;26.000;2022-08-19T12:16:31;13.02;;;5.35;;
24425;SDS011;12611;44.446;26.000;2022-08-19T12:19:08;9.07;;;4.35;;
24425;SDS011;12611;44.446;26.000;2022-08-19T12:21:36;11.70;;;5.03;;
24425;SDS011;12611;44.446;26.000;2022-08-19T12:24:05;17.90;;;5.22;;
24425;SDS011;12611;44.446;26.000;2022-08-19T12:26:36;15.88;;;5.00;;
24425;SDS011;12611;44.446;26.000;2022-08-19T12:29:20;6.35;;;3.78;;
24425;SDS011;12611;44.446;26.000;2022-08-19T12:31:55;7.88;;;4.22;;
24425;SDS011;12611;44.446;26.000;2022-08-19T12:34:30;11.88;;;4.57;;
24425;SDS011;12611;44.446;26.000;2022-08-19T12:37:01;6.53;;;3.85;;
24425;SDS011;12611;44.446;26.000;2022-08-19T12:39:33;6.20;;;4.43;;
24425;SDS011;12611;44.446;26.000;2022-08-19T12:42:03;6.93;;;3.90;;
24425;SDS011;12611;44.446;26.000;2022-08-19T12:44:37;6.15;;;3.58;;
24425;SDS011;12611;44.446;26.000;2022-08-19T12:47:08;6.93;;;4.13;;
24425;SDS011;12611;44.446;26.000;2022-08-19T12:49:39;5.80;;;3.53;;
24425;SDS011;12611;44.446;26.000;2022-08-19T12:52:21;4.43;;;3.30;;
24425;SDS011;12611;44.446;26.000;2022-08-19T12:54:50;6.45;;;3.95;;
24425;SDS011;12611;44.446;26.000;2022-08-19T12:57:21;7.07;;;3.88;;
24425;SDS011;12611;44.446;26.000;2022-08-19T13:00:00;6.72;;;3.80;;
24425;SDS011;12611;44.446;26.000;2022-08-19T13:02:34;6.55;;;4.00;;
24425;SDS011;12611;44.446;26.000;2022-08-19T13:05:04;5.70;;;3.97;;
24425;SDS011;12611;44.446;26.000;2022-08-19T13:07:35;7.20;;;4.07;;
24425;SDS011;12611;44.446;26.000;2022-08-19T13:10:05;7.00;;;3.90;;
24425;SDS011;12611;44.446;26.000;2022-08-19T13:12:35;6.47;;;3.85;;
24425;SDS011;12611;44.446;26.000;2022-08-19T13:15:07;6.40;;;4.10;;
24425;SDS011;12611;44.446;26.000;2022-08-19T13:17:37;12.38;;;4.50;;
24425;SDS011;12611;44.446;26.000;2022-08-19T13:20:06;7.60;;;3.75;;
24425;SDS011;12611;44.446;26.000;2022-08-19T13:22:38;10.30;;;4.03;;
24425;SDS011;12611;44.446;26.000;2022-08-19T13:25:07;8.02;;;4.28;;
24425;SDS011;12611;44.446;26.000;2022-08-19T13:27:36;8.80;;;3.85;;
24425;SDS011;12611;44.446;26.000;2022-08-19T13:30:08;6.32;;;3.70;;
24425;SDS011;12611;44.446;26.000;2022-08-19T13:32:55;7.70;;;3.95;;
24425;SDS011;12611;44.446;26.000;2022-08-19T13:35:42;6.80;;;3.53;;
24425;SDS011;12611;44.446;26.000;2022-08-19T13:38:13;8.38;;;3.75;;
24425;SDS011;12611;44.446;26.000;2022-08-19T13:40:42;7.32;;;3.70;;
24425;SDS011;12611;44.446;26.000;2022-08-19T13:43:13;6.75;;;3.55;;
24425;SDS011;12611;44.446;26.000;2022-08-19T13:45:50;5.50;;;3.70;;
24425;SDS011;12611;44.446;26.000;2022-08-19T13:48:22;6.75;;;3.90;;
24425;SDS011;12611;44.446;26.000;2022-08-19T13:50:53;5.97;;;3.60;;
24425;SDS011;12611;44.446;26.000;2022-08-19T13:53:22;7.65;;;3.88;;
24425;SDS011;12611;44.446;26.000;2022-08-19T13:55:51;5.57;;;3.22;;
24425;SDS011;12611;44.446;26.000;2022-08-19T13:58:20;8.73;;;3.97;;
24425;SDS011;12611;44.446;26.000;2022-08-19T14:00:50;9.05;;;3.85;;
24425;SDS011;12611;44.446;26.000;2022-08-19T14:03:19;6.05;;;3.90;;
24425;SDS011;12611;44.446;26.000;2022-08-19T14:05:47;8.77;;;4.40;;
24425;SDS011;12611;44.446;26.000;2022-08-19T14:08:16;6.25;;;3.85;;
24425;SDS011;12611;44.446;26.000;2022-08-19T14:10:45;9.90;;;3.95;;
24425;SDS011;12611;44.446;26.000;2022-08-19T14:13:16;8.15;;;3.95;;
24425;SDS011;12611;44.446;26.000;2022-08-19T14:15:47;5.82;;;4.03;;
24425;SDS011;12611;44.446;26.000;2022-08-19T14:18:17;8.60;;;4.18;;
24425;SDS011;12611;44.446;26.000;2022-08-19T14:20:46;6.60;;;3.60;;
24425;SDS011;12611;44.446;26.000;2022-08-19T14:23:15;7.00;;;4.13;;
24425;SDS011;12611;44.446;26.000;2022-08-19T14:25:47;9.98;;;5.07;;
24425;SDS011;12611;44.446;26.000;2022-08-19T14:28:15;6.80;;;4.82;;
24425;SDS011;12611;44.446;26.000;2022-08-19T14:30:44;6.93;;;4.30;;
24425;SDS011;12611;44.446;26.000;2022-08-19T14:33:12;13.45;;;5.05;;
24425;SDS011;12611;44.446;26.000;2022-08-19T14:35:42;10.55;;;4.47;;
24425;SDS011;12611;44.446;26.000;2022-08-19T14:38:14;8.02;;;4.15;;
24425;SDS011;12611;44.446;26.000;2022-08-19T14:40:53;5.57;;;3.80;;
24425;SDS011;12611;44.446;26.000;2022-08-19T14:43:27;5.43;;;3.83;;
24425;SDS011;12611;44.446;26.000;2022-08-19T14:45:56;6.88;;;4.15;;
24425;SDS011;12611;44.446;26.000;2022-08-19T14:48:25;7.00;;;3.72;;
24425;SDS011;12611;44.446;26.000;2022-08-19T14:50:56;6.18;;;3.95;;
24425;SDS011;12611;44.446;26.000;2022-08-19T14:53:24;8.50;;;3.83;;
24425;SDS011;12611;44.446;26.000;2022-08-19T14:55:53;7.13;;;3.75;;
24425;SDS011;12611;44.446;26.000;2022-08-19T14:58:21;6.40;;;3.72;;
24425;SDS011;12611;44.446;26.000;2022-08-19T15:00:55;7.05;;;4.13;;
24425;SDS011;12611;44.446;26.000;2022-08-19T15:03:25;7.22;;;4.15;;
24425;SDS011;12611;44.446;26.000;2022-08-19T15:05:56;10.02;;;4.20;;
24425;SDS011;12611;44.446;26.000;2022-08-19T15:08:24;5.95;;;3.97;;